San Bernardino, CA (92410)

8:37 PM PDT on August 27, 2015 (GMT -0700)
MesoWest | | Change Station
CLOSE
Current Station
Personal Weather Station
Location: San Bernardino, CA
Elevation: 1049 ft
Nearby Weather Stations

Elev 1049 ft 34.11 °N, 117.30 °W | Updated 48 minutes ago

Partly Cloudy
Partly Cloudy
92 °F
Feels Like 90 °F
N
5
Wind Variable Wind from WSW
Gusts 11.0 mph

Today
High -- | Low -- °F
--% Chance of Precip.
Yesterday
High -- | Low -- °F
Precip. -- in
6:19 AM 7:21 PM
Waxing Gibbous, 96% visible
Pressure 29.89 in
Visibility 10.0 miles
Clouds Few 10000 ft
Heat Index 90 °F
Dew Point 55 °F
Humidity 29%
Rainfall in
Snow Depth Not available.
UV 0 out of 12
Pollen 5.50 out of 12
Air Quality Not available.
Flu Activity Not available.
METAR KSBD 280145Z 24009KT 10SM FEW100 35/12 A2989
Pressure 29.89 in
Visibility 10.0 miles
Clouds Few 10000 ft
Heat Index 90 °F
Dew Point 55 °F
Humidity 29%
Rainfall in
Snow Depth Not available.
UV 0 out of 12
Pollen 5.50 out of 12
Air Quality Not available.
Flu Activity Not available.
METAR KSBD 280145Z 24009KT 10SM FEW100 35/12 A2989

10-Day Weather Forecast

×

Almanac

Astronomy

Aug. 27, 2015 Rise Set
Actual Time
Civil Twilight
Nautical Twilight
Astronomical Twilight
Moon
Length of Visible Light
Length of Day
Tomorrow will be .
, % of the Moon is Illuminated

Today's Extremes

State Highs State Lows

Community

WunderPhotos

Upload Photos

1,850,317 photos uploaded!

WunderBlogs® & News

Nearby

Air Quality

  Air Quality AQ Index Pollutant
Not available.

Snow Depth

Station Depth Elevation

Earthquake Activity

City Distance Mag. Time & Date
Minimum magnitude displayed is 2.5.

Coastal Water Temperatures

Place Temperature

Stations

Nearby Weather Stations

Station Location Temp. Windchill Dew Point Humidity Wind Precip. Elev Updated Type